sensor_id;sensor_type;location;lat;lon;timestamp;temperature;humidity
18392;DHT22;9322;50.932;5.318;2023-07-31T00:00:46;17.40;1.40
18392;DHT22;9322;50.932;5.318;2023-07-31T00:03:12;17.50;1.40
18392;DHT22;9322;50.932;5.318;2023-07-31T00:05:38;17.40;1.40
18392;DHT22;9322;50.932;5.318;2023-07-31T00:08:03;17.50;1.40
18392;DHT22;9322;50.932;5.318;2023-07-31T00:10:29;17.30;1.40
18392;DHT22;9322;50.932;5.318;2023-07-31T00:12:54;17.20;1.40
18392;DHT22;9322;50.932;5.318;2023-07-31T00:15:20;17.20;1.40
18392;DHT22;9322;50.932;5.318;2023-07-31T00:17:46;17.20;1.40
18392;DHT22;9322;50.932;5.318;2023-07-31T00:20:12;17.20;1.40
18392;DHT22;9322;50.932;5.318;2023-07-31T00:22:37;17.20;1.40
18392;DHT22;9322;50.932;5.318;2023-07-31T00:25:03;17.20;1.40
18392;DHT22;9322;50.932;5.318;2023-07-31T00:27:31;17.30;1.40
18392;DHT22;9322;50.932;5.318;2023-07-31T00:29:57;17.30;1.40
18392;DHT22;9322;50.932;5.318;2023-07-31T00:32:23;17.20;1.40
18392;DHT22;9322;50.932;5.318;2023-07-31T00:34:48;17.20;1.40
18392;DHT22;9322;50.932;5.318;2023-07-31T00:37:14;17.20;1.40
18392;DHT22;9322;50.932;5.318;2023-07-31T00:39:40;17.20;1.40
18392;DHT22;9322;50.932;5.318;2023-07-31T00:42:06;17.20;1.40
18392;DHT22;9322;50.932;5.318;2023-07-31T00:44:32;17.20;1.40
18392;DHT22;9322;50.932;5.318;2023-07-31T00:46:58;17.20;1.40
18392;DHT22;9322;50.932;5.318;2023-07-31T00:49:25;17.30;1.40
18392;DHT22;9322;50.932;5.318;2023-07-31T00:51:51;17.20;1.40
18392;DHT22;9322;50.932;5.318;2023-07-31T00:54:17;17.20;1.40
18392;DHT22;9322;50.932;5.318;2023-07-31T00:56:44;17.20;1.40
18392;DHT22;9322;50.932;5.318;2023-07-31T00:59:10;17.20;1.40
18392;DHT22;9322;50.932;5.318;2023-07-31T01:01:36;17.10;1.40
18392;DHT22;9322;50.932;5.318;2023-07-31T01:04:02;17.20;1.40
18392;DHT22;9322;50.932;5.318;2023-07-31T01:06:44;17.30;1.40
18392;DHT22;9322;50.932;5.318;2023-07-31T01:09:47;17.30;1.40
18392;DHT22;9322;50.932;5.318;2023-07-31T01:12:17;17.30;1.40
18392;DHT22;9322;50.932;5.318;2023-07-31T01:15:03;17.40;1.40
18392;DHT22;9322;50.932;5.318;2023-07-31T01:17:28;17.50;1.40
18392;DHT22;9322;50.932;5.318;2023-07-31T01:19:56;17.40;1.40
18392;DHT22;9322;50.932;5.318;2023-07-31T01:25:49;17.40;1.40
18392;DHT22;9322;50.932;5.318;2023-07-31T01:28:20;17.40;1.40
18392;DHT22;9322;50.932;5.318;2023-07-31T01:30:48;17.50;1.40
18392;DHT22;9322;50.932;5.318;2023-07-31T01:33:16;17.50;1.40
18392;DHT22;9322;50.932;5.318;2023-07-31T01:35:44;17.60;1.40
18392;DHT22;9322;50.932;5.318;2023-07-31T01:38:10;17.60;1.40
18392;DHT22;9322;50.932;5.318;2023-07-31T01:40:35;17.60;1.40
18392;DHT22;9322;50.932;5.318;2023-07-31T01:43:01;17.70;1.40
18392;DHT22;9322;50.932;5.318;2023-07-31T01:45:27;17.80;1.40
18392;DHT22;9322;50.932;5.318;2023-07-31T01:47:52;17.80;1.40
18392;DHT22;9322;50.932;5.318;2023-07-31T01:50:18;17.90;1.40
18392;DHT22;9322;50.932;5.318;2023-07-31T01:52:43;17.80;1.40
18392;DHT22;9322;50.932;5.318;2023-07-31T01:55:09;17.80;1.40
18392;DHT22;9322;50.932;5.318;2023-07-31T01:57:36;17.80;1.40
18392;DHT22;9322;50.932;5.318;2023-07-31T02:00:02;17.90;1.40
18392;DHT22;9322;50.932;5.318;2023-07-31T02:02:28;17.80;1.40
18392;DHT22;9322;50.932;5.318;2023-07-31T02:04:53;17.80;1.40
18392;DHT22;9322;50.932;5.318;2023-07-31T02:07:19;17.80;1.40
18392;DHT22;9322;50.932;5.318;2023-07-31T02:09:44;17.80;1.40
18392;DHT22;9322;50.932;5.318;2023-07-31T02:12:12;17.80;1.40
18392;DHT22;9322;50.932;5.318;2023-07-31T02:14:39;17.80;1.40
18392;DHT22;9322;50.932;5.318;2023-07-31T02:17:05;17.80;1.40
18392;DHT22;9322;50.932;5.318;2023-07-31T02:19:31;17.80;1.40
18392;DHT22;9322;50.932;5.318;2023-07-31T02:21:57;17.80;1.40
18392;DHT22;9322;50.932;5.318;2023-07-31T02:24:23;17.80;1.40
18392;DHT22;9322;50.932;5.318;2023-07-31T02:26:49;17.80;1.40
18392;DHT22;9322;50.932;5.318;2023-07-31T02:29:15;17.70;1.40
18392;DHT22;9322;50.932;5.318;2023-07-31T02:31:40;17.80;1.40
18392;DHT22;9322;50.932;5.318;2023-07-31T02:34:06;17.70;1.40
18392;DHT22;9322;50.932;5.318;2023-07-31T02:36:31;17.60;1.40
18392;DHT22;9322;50.932;5.318;2023-07-31T02:38:57;17.70;1.40
18392;DHT22;9322;50.932;5.318;2023-07-31T02:41:23;17.70;1.40
18392;DHT22;9322;50.932;5.318;2023-07-31T02:43:48;17.60;1.40
18392;DHT22;9322;50.932;5.318;2023-07-31T02:46:14;17.60;1.40
18392;DHT22;9322;50.932;5.318;2023-07-31T02:48:39;17.60;1.40
18392;DHT22;9322;50.932;5.318;2023-07-31T02:51:05;17.60;1.40
18392;DHT22;9322;50.932;5.318;2023-07-31T02:53:30;17.60;1.40
18392;DHT22;9322;50.932;5.318;2023-07-31T02:55:56;17.50;1.40
18392;DHT22;9322;50.932;5.318;2023-07-31T02:58:22;17.50;1.40
18392;DHT22;9322;50.932;5.318;2023-07-31T03:00:47;17.50;1.40
18392;DHT22;9322;50.932;5.318;2023-07-31T03:03:13;17.60;1.40
18392;DHT22;9322;50.932;5.318;2023-07-31T03:05:38;17.60;1.40
18392;DHT22;9322;50.932;5.318;2023-07-31T03:08:04;17.60;1.40
18392;DHT22;9322;50.932;5.318;2023-07-31T03:10:30;17.70;1.40
18392;DHT22;9322;50.932;5.318;2023-07-31T03:12:55;17.70;1.40
18392;DHT22;9322;50.932;5.318;2023-07-31T03:15:21;17.70;1.40
18392;DHT22;9322;50.932;5.318;2023-07-31T03:17:46;17.70;1.40
18392;DHT22;9322;50.932;5.318;2023-07-31T03:20:12;17.70;1.40
18392;DHT22;9322;50.932;5.318;2023-07-31T03:22:38;17.70;1.40
18392;DHT22;9322;50.932;5.318;2023-07-31T03:25:04;17.80;1.40
18392;DHT22;9322;50.932;5.318;2023-07-31T03:27:30;17.70;1.40
18392;DHT22;9322;50.932;5.318;2023-07-31T03:29:55;17.70;1.40
18392;DHT22;9322;50.932;5.318;2023-07-31T03:32:21;17.80;1.40
18392;DHT22;9322;50.932;5.318;2023-07-31T03:34:46;17.80;1.40
18392;DHT22;9322;50.932;5.318;2023-07-31T03:37:12;17.60;1.40
18392;DHT22;9322;50.932;5.318;2023-07-31T03:39:38;17.60;1.40
18392;DHT22;9322;50.932;5.318;2023-07-31T03:42:04;17.60;1.40
18392;DHT22;9322;50.932;5.318;2023-07-31T03:44:30;17.70;1.40
18392;DHT22;9322;50.932;5.318;2023-07-31T03:46:55;17.70;1.40
18392;DHT22;9322;50.932;5.318;2023-07-31T03:49:21;17.80;1.40
18392;DHT22;9322;50.932;5.318;2023-07-31T03:51:47;17.70;1.40
18392;DHT22;9322;50.932;5.318;2023-07-31T03:54:12;17.80;1.40
18392;DHT22;9322;50.932;5.318;2023-07-31T03:56:39;17.70;1.40
18392;DHT22;9322;50.932;5.318;2023-07-31T03:59:05;17.70;1.40
18392;DHT22;9322;50.932;5.318;2023-07-31T04:01:30;17.70;1.40
18392;DHT22;9322;50.932;5.318;2023-07-31T04:03:56;17.70;1.40
18392;DHT22;9322;50.932;5.318;2023-07-31T04:06:22;17.50;1.40
18392;DHT22;9322;50.932;5.318;2023-07-31T04:08:47;17.60;1.40
18392;DHT22;9322;50.932;5.318;2023-07-31T04:11:13;17.70;1.40
18392;DHT22;9322;50.932;5.318;2023-07-31T04:13:39;17.70;1.40
18392;DHT22;9322;50.932;5.318;2023-07-31T04:16:05;17.60;1.40
18392;DHT22;9322;50.932;5.318;2023-07-31T04:18:31;17.40;1.40
18392;DHT22;9322;50.932;5.318;2023-07-31T04:20:58;17.50;1.40
18392;DHT22;9322;50.932;5.318;2023-07-31T04:23:24;17.50;1.40
18392;DHT22;9322;50.932;5.318;2023-07-31T04:25:50;17.60;1.40
18392;DHT22;9322;50.932;5.318;2023-07-31T04:28:16;17.60;1.40
18392;DHT22;9322;50.932;5.318;2023-07-31T04:30:41;17.70;1.40
18392;DHT22;9322;50.932;5.318;2023-07-31T04:33:07;17.70;1.40
18392;DHT22;9322;50.932;5.318;2023-07-31T04:35:33;17.70;1.40
18392;DHT22;9322;50.932;5.318;2023-07-31T04:37:58;17.60;1.40
18392;DHT22;9322;50.932;5.318;2023-07-31T04:40:24;17.60;1.40
18392;DHT22;9322;50.932;5.318;2023-07-31T04:42:50;17.60;1.40
18392;DHT22;9322;50.932;5.318;2023-07-31T04:45:15;17.50;1.40
18392;DHT22;9322;50.932;5.318;2023-07-31T04:47:41;17.50;1.40
18392;DHT22;9322;50.932;5.318;2023-07-31T04:50:07;17.50;1.40
18392;DHT22;9322;50.932;5.318;2023-07-31T04:52:33;17.50;1.40
18392;DHT22;9322;50.932;5.318;2023-07-31T04:54:58;17.40;1.40
18392;DHT22;9322;50.932;5.318;2023-07-31T04:57:24;17.50;1.40
18392;DHT22;9322;50.932;5.318;2023-07-31T04:59:50;17.40;1.40
18392;DHT22;9322;50.932;5.318;2023-07-31T05:02:16;17.30;1.40
18392;DHT22;9322;50.932;5.318;2023-07-31T05:04:41;17.30;1.40
18392;DHT22;9322;50.932;5.318;2023-07-31T05:07:07;17.30;1.40
18392;DHT22;9322;50.932;5.318;2023-07-31T05:09:33;17.30;1.40
18392;DHT22;9322;50.932;5.318;2023-07-31T05:11:58;17.30;1.40
18392;DHT22;9322;50.932;5.318;2023-07-31T05:14:25;17.30;1.40
18392;DHT22;9322;50.932;5.318;2023-07-31T05:16:51;17.20;1.40
18392;DHT22;9322;50.932;5.318;2023-07-31T05:19:17;17.30;1.40
18392;DHT22;9322;50.932;5.318;2023-07-31T05:21:43;17.30;1.40
18392;DHT22;9322;50.932;5.318;2023-07-31T05:24:10;17.30;1.40
18392;DHT22;9322;50.932;5.318;2023-07-31T05:26:36;17.40;1.40
18392;DHT22;9322;50.932;5.318;2023-07-31T05:29:03;17.40;1.40
18392;DHT22;9322;50.932;5.318;2023-07-31T05:31:29;17.50;1.40
18392;DHT22;9322;50.932;5.318;2023-07-31T05:33:55;17.50;1.40
18392;DHT22;9322;50.932;5.318;2023-07-31T05:36:20;17.60;1.40
18392;DHT22;9322;50.932;5.318;2023-07-31T05:38:46;17.50;1.40
18392;DHT22;9322;50.932;5.318;2023-07-31T05:41:12;17.40;1.40
18392;DHT22;9322;50.932;5.318;2023-07-31T05:43:38;17.40;1.40
18392;DHT22;9322;50.932;5.318;2023-07-31T05:46:04;17.50;1.40
18392;DHT22;9322;50.932;5.318;2023-07-31T05:48:30;17.40;1.40
18392;DHT22;9322;50.932;5.318;2023-07-31T05:50:55;17.60;1.40
18392;DHT22;9322;50.932;5.318;2023-07-31T05:53:21;17.50;1.40
18392;DHT22;9322;50.932;5.318;2023-07-31T05:55:47;17.60;1.40
18392;DHT22;9322;50.932;5.318;2023-07-31T05:58:12;17.40;1.40
18392;DHT22;9322;50.932;5.318;2023-07-31T06:00:38;17.50;1.40
18392;DHT22;9322;50.932;5.318;2023-07-31T06:03:04;17.50;1.40
18392;DHT22;9322;50.932;5.318;2023-07-31T06:05:29;17.50;1.40
18392;DHT22;9322;50.932;5.318;2023-07-31T06:07:56;17.20;1.40
18392;DHT22;9322;50.932;5.318;2023-07-31T06:10:22;17.10;1.40
18392;DHT22;9322;50.932;5.318;2023-07-31T06:12:48;17.20;1.40
18392;DHT22;9322;50.932;5.318;2023-07-31T06:15:13;17.00;1.40
18392;DHT22;9322;50.932;5.318;2023-07-31T06:17:39;17.20;1.40
18392;DHT22;9322;50.932;5.318;2023-07-31T06:20:06;17.10;1.40
18392;DHT22;9322;50.932;5.318;2023-07-31T06:22:32;17.00;1.40
18392;DHT22;9322;50.932;5.318;2023-07-31T06:24:58;17.10;1.40
18392;DHT22;9322;50.932;5.318;2023-07-31T06:27:24;17.10;1.40
18392;DHT22;9322;50.932;5.318;2023-07-31T06:29:50;17.10;1.40
18392;DHT22;9322;50.932;5.318;2023-07-31T06:32:15;17.00;1.40
18392;DHT22;9322;50.932;5.318;2023-07-31T06:34:41;17.00;1.40
18392;DHT22;9322;50.932;5.318;2023-07-31T06:37:07;16.70;1.40
18392;DHT22;9322;50.932;5.318;2023-07-31T06:39:32;16.80;1.40
18392;DHT22;9322;50.932;5.318;2023-07-31T06:41:58;16.70;1.40
18392;DHT22;9322;50.932;5.318;2023-07-31T06:44:24;16.80;1.40
18392;DHT22;9322;50.932;5.318;2023-07-31T06:46:49;16.90;1.40
18392;DHT22;9322;50.932;5.318;2023-07-31T06:49:15;17.00;1.40
18392;DHT22;9322;50.932;5.318;2023-07-31T06:51:41;17.00;1.40
18392;DHT22;9322;50.932;5.318;2023-07-31T06:54:08;17.00;1.40
18392;DHT22;9322;50.932;5.318;2023-07-31T06:56:33;17.00;1.40
18392;DHT22;9322;50.932;5.318;2023-07-31T06:58:59;17.00;1.40
18392;DHT22;9322;50.932;5.318;2023-07-31T07:01:25;17.10;1.40
18392;DHT22;9322;50.932;5.318;2023-07-31T07:03:51;17.20;1.40
18392;DHT22;9322;50.932;5.318;2023-07-31T07:06:17;17.10;1.40
18392;DHT22;9322;50.932;5.318;2023-07-31T07:08:43;17.20;1.40
18392;DHT22;9322;50.932;5.318;2023-07-31T07:11:09;17.30;1.40
18392;DHT22;9322;50.932;5.318;2023-07-31T07:13:34;17.40;1.40
18392;DHT22;9322;50.932;5.318;2023-07-31T07:16:00;17.30;1.40
18392;DHT22;9322;50.932;5.318;2023-07-31T07:18:26;17.30;1.40
18392;DHT22;9322;50.932;5.318;2023-07-31T07:20:53;17.30;1.40
18392;DHT22;9322;50.932;5.318;2023-07-31T07:23:19;17.40;1.40
18392;DHT22;9322;50.932;5.318;2023-07-31T07:25:46;17.50;1.40
18392;DHT22;9322;50.932;5.318;2023-07-31T07:28:13;17.50;1.40
18392;DHT22;9322;50.932;5.318;2023-07-31T07:30:39;17.40;1.40
18392;DHT22;9322;50.932;5.318;2023-07-31T07:33:05;17.50;1.40
18392;DHT22;9322;50.932;5.318;2023-07-31T07:35:33;17.70;1.40
18392;DHT22;9322;50.932;5.318;2023-07-31T07:37:59;17.40;1.40
18392;DHT22;9322;50.932;5.318;2023-07-31T07:40:26;17.50;1.40
18392;DHT22;9322;50.932;5.318;2023-07-31T07:42:51;17.50;1.40
18392;DHT22;9322;50.932;5.318;2023-07-31T07:45:17;17.50;1.40
18392;DHT22;9322;50.932;5.318;2023-07-31T07:47:43;17.60;1.40
18392;DHT22;9322;50.932;5.318;2023-07-31T07:50:09;17.70;1.40
18392;DHT22;9322;50.932;5.318;2023-07-31T07:52:35;17.60;1.40
18392;DHT22;9322;50.932;5.318;2023-07-31T07:55:00;17.50;1.40
18392;DHT22;9322;50.932;5.318;2023-07-31T07:57:26;17.40;1.40
18392;DHT22;9322;50.932;5.318;2023-07-31T07:59:52;17.50;1.40
18392;DHT22;9322;50.932;5.318;2023-07-31T08:02:18;17.60;1.40
18392;DHT22;9322;50.932;5.318;2023-07-31T08:04:43;17.70;1.40
18392;DHT22;9322;50.932;5.318;2023-07-31T08:07:12;17.70;1.40
18392;DHT22;9322;50.932;5.318;2023-07-31T08:09:38;17.60;1.40
18392;DHT22;9322;50.932;5.318;2023-07-31T08:12:05;17.90;1.40
18392;DHT22;9322;50.932;5.318;2023-07-31T08:14:31;17.90;1.40
18392;DHT22;9322;50.932;5.318;2023-07-31T08:16:56;17.70;1.40
18392;DHT22;9322;50.932;5.318;2023-07-31T08:19:22;17.90;1.40
18392;DHT22;9322;50.932;5.318;2023-07-31T08:21:48;18.00;1.40
18392;DHT22;9322;50.932;5.318;2023-07-31T08:24:14;18.10;1.40
18392;DHT22;9322;50.932;5.318;2023-07-31T08:26:39;17.90;1.40
18392;DHT22;9322;50.932;5.318;2023-07-31T08:29:05;17.90;1.40
18392;DHT22;9322;50.932;5.318;2023-07-31T08:31:31;17.90;1.40
18392;DHT22;9322;50.932;5.318;2023-07-31T08:33:57;17.70;1.40
18392;DHT22;9322;50.932;5.318;2023-07-31T08:36:22;17.80;1.40
18392;DHT22;9322;50.932;5.318;2023-07-31T08:38:48;18.00;1.40
18392;DHT22;9322;50.932;5.318;2023-07-31T08:41:15;17.90;1.40
18392;DHT22;9322;50.932;5.318;2023-07-31T08:43:47;17.90;1.40
18392;DHT22;9322;50.932;5.318;2023-07-31T08:46:13;17.90;1.40
18392;DHT22;9322;50.932;5.318;2023-07-31T08:48:41;18.10;1.40
18392;DHT22;9322;50.932;5.318;2023-07-31T08:51:08;18.10;1.40
18392;DHT22;9322;50.932;5.318;2023-07-31T08:53:33;18.10;1.40
18392;DHT22;9322;50.932;5.318;2023-07-31T08:55:59;18.00;1.40
18392;DHT22;9322;50.932;5.318;2023-07-31T08:58:28;18.10;1.40
18392;DHT22;9322;50.932;5.318;2023-07-31T09:00:57;17.90;1.40
18392;DHT22;9322;50.932;5.318;2023-07-31T09:03:24;17.90;1.40
18392;DHT22;9322;50.932;5.318;2023-07-31T09:05:51;18.10;1.40
18392;DHT22;9322;50.932;5.318;2023-07-31T09:08:21;18.30;1.40
18392;DHT22;9322;50.932;5.318;2023-07-31T09:10:48;18.20;1.40
18392;DHT22;9322;50.932;5.318;2023-07-31T09:13:17;18.40;1.40
18392;DHT22;9322;50.932;5.318;2023-07-31T09:15:44;18.60;1.40
18392;DHT22;9322;50.932;5.318;2023-07-31T09:18:10;18.70;1.40
18392;DHT22;9322;50.932;5.318;2023-07-31T09:20:37;18.50;1.40
18392;DHT22;9322;50.932;5.318;2023-07-31T09:25:32;18.60;1.40
18392;DHT22;9322;50.932;5.318;2023-07-31T09:30:28;18.70;1.40
18392;DHT22;9322;50.932;5.318;2023-07-31T09:33:05;18.50;1.40
18392;DHT22;9322;50.932;5.318;2023-07-31T09:35:34;18.60;1.40
18392;DHT22;9322;50.932;5.318;2023-07-31T09:38:07;18.20;1.40
18392;DHT22;9322;50.932;5.318;2023-07-31T09:40:38;18.20;1.40
18392;DHT22;9322;50.932;5.318;2023-07-31T09:43:08;18.50;1.40
18392;DHT22;9322;50.932;5.318;2023-07-31T09:45:37;18.70;1.40
18392;DHT22;9322;50.932;5.318;2023-07-31T09:48:03;18.50;1.40
18392;DHT22;9322;50.932;5.318;2023-07-31T09:50:32;18.60;1.40
18392;DHT22;9322;50.932;5.318;2023-07-31T09:52:57;18.50;1.40
18392;DHT22;9322;50.932;5.318;2023-07-31T09:55:24;18.80;1.40
18392;DHT22;9322;50.932;5.318;2023-07-31T09:57:50;18.80;1.40
18392;DHT22;9322;50.932;5.318;2023-07-31T10:00:18;18.80;1.40
18392;DHT22;9322;50.932;5.318;2023-07-31T10:02:47;18.90;1.40
18392;DHT22;9322;50.932;5.318;2023-07-31T10:05:16;18.70;1.40
18392;DHT22;9322;50.932;5.318;2023-07-31T10:08:02;18.70;1.40
18392;DHT22;9322;50.932;5.318;2023-07-31T10:10:28;18.70;1.40
18392;DHT22;9322;50.932;5.318;2023-07-31T10:12:56;18.70;1.40
18392;DHT22;9322;50.932;5.318;2023-07-31T10:15:22;18.80;1.40
18392;DHT22;9322;50.932;5.318;2023-07-31T10:17:49;19.10;1.40
18392;DHT22;9322;50.932;5.318;2023-07-31T10:20:15;19.00;1.40
18392;DHT22;9322;50.932;5.318;2023-07-31T10:22:44;19.10;1.40
18392;DHT22;9322;50.932;5.318;2023-07-31T10:25:15;19.30;1.40
18392;DHT22;9322;50.932;5.318;2023-07-31T10:27:42;19.20;1.40
18392;DHT22;9322;50.932;5.318;2023-07-31T10:30:12;19.10;1.40
18392;DHT22;9322;50.932;5.318;2023-07-31T10:32:41;19.30;1.40
18392;DHT22;9322;50.932;5.318;2023-07-31T10:35:08;19.20;1.40
18392;DHT22;9322;50.932;5.318;2023-07-31T10:37:42;18.90;1.40
18392;DHT22;9322;50.932;5.318;2023-07-31T10:40:13;19.00;1.40
18392;DHT22;9322;50.932;5.318;2023-07-31T10:42:52;19.10;1.40
18392;DHT22;9322;50.932;5.318;2023-07-31T10:45:38;19.20;1.40
18392;DHT22;9322;50.932;5.318;2023-07-31T10:48:13;19.10;1.40
18392;DHT22;9322;50.932;5.318;2023-07-31T10:50:55;19.30;1.40
18392;DHT22;9322;50.932;5.318;2023-07-31T10:53:25;19.50;1.40
18392;DHT22;9322;50.932;5.318;2023-07-31T10:55:51;19.50;1.40
18392;DHT22;9322;50.932;5.318;2023-07-31T10:58:19;19.50;1.40
18392;DHT22;9322;50.932;5.318;2023-07-31T11:00:45;19.40;1.40
18392;DHT22;9322;50.932;5.318;2023-07-31T11:03:14;19.80;1.40
18392;DHT22;9322;50.932;5.318;2023-07-31T11:06:03;20.20;1.40
18392;DHT22;9322;50.932;5.318;2023-07-31T11:08:32;19.90;1.40
18392;DHT22;9322;50.932;5.318;2023-07-31T11:13:30;20.00;1.40
18392;DHT22;9322;50.932;5.318;2023-07-31T11:15:56;20.10;1.40
18392;DHT22;9322;50.932;5.318;2023-07-31T11:18:22;20.00;1.40
18392;DHT22;9322;50.932;5.318;2023-07-31T11:20:47;20.00;1.40
18392;DHT22;9322;50.932;5.318;2023-07-31T11:23:16;20.20;1.40
18392;DHT22;9322;50.932;5.318;2023-07-31T11:25:42;20.00;1.40
18392;DHT22;9322;50.932;5.318;2023-07-31T11:30:34;20.30;1.40
18392;DHT22;9322;50.932;5.318;2023-07-31T11:33:05;20.50;1.40
18392;DHT22;9322;50.932;5.318;2023-07-31T11:35:40;20.90;1.40
18392;DHT22;9322;50.932;5.318;2023-07-31T11:38:07;21.10;1.40
18392;DHT22;9322;50.932;5.318;2023-07-31T11:40:42;21.10;1.40
18392;DHT22;9322;50.932;5.318;2023-07-31T11:43:08;21.10;1.40
18392;DHT22;9322;50.932;5.318;2023-07-31T11:45:33;21.20;1.40
18392;DHT22;9322;50.932;5.318;2023-07-31T11:48:01;21.30;1.40
18392;DHT22;9322;50.932;5.318;2023-07-31T11:50:27;21.40;1.40
18392;DHT22;9322;50.932;5.318;2023-07-31T11:53:03;21.50;1.40
18392;DHT22;9322;50.932;5.318;2023-07-31T11:55:31;21.50;1.40
18392;DHT22;9322;50.932;5.318;2023-07-31T11:57:59;21.60;1.40
18392;DHT22;9322;50.932;5.318;2023-07-31T12:00:25;21.60;1.40
18392;DHT22;9322;50.932;5.318;2023-07-31T12:02:52;21.70;1.40
18392;DHT22;9322;50.932;5.318;2023-07-31T12:05:18;21.30;1.40
18392;DHT22;9322;50.932;5.318;2023-07-31T12:07:49;21.40;1.40
18392;DHT22;9322;50.932;5.318;2023-07-31T12:10:36;21.40;1.40
18392;DHT22;9322;50.932;5.318;2023-07-31T12:13:07;21.50;1.40
18392;DHT22;9322;50.932;5.318;2023-07-31T12:15:35;21.60;1.40
18392;DHT22;9322;50.932;5.318;2023-07-31T12:18:20;21.60;1.40
18392;DHT22;9322;50.932;5.318;2023-07-31T12:20:48;21.60;1.40
18392;DHT22;9322;50.932;5.318;2023-07-31T12:23:19;21.40;1.40
18392;DHT22;9322;50.932;5.318;2023-07-31T12:25:45;21.10;1.40
18392;DHT22;9322;50.932;5.318;2023-07-31T12:28:10;21.10;1.40
18392;DHT22;9322;50.932;5.318;2023-07-31T12:30:40;21.00;1.40
18392;DHT22;9322;50.932;5.318;2023-07-31T12:33:12;20.90;1.40
18392;DHT22;9322;50.932;5.318;2023-07-31T12:35:40;21.20;1.40
18392;DHT22;9322;50.932;5.318;2023-07-31T12:38:06;21.50;1.40
18392;DHT22;9322;50.932;5.318;2023-07-31T12:40:32;21.80;1.40
18392;DHT22;9322;50.932;5.318;2023-07-31T12:43:00;22.50;1.40
18392;DHT22;9322;50.932;5.318;2023-07-31T12:45:26;23.00;1.40
18392;DHT22;9322;50.932;5.318;2023-07-31T12:47:52;23.00;1.40
18392;DHT22;9322;50.932;5.318;2023-07-31T12:50:18;22.70;1.40
18392;DHT22;9322;50.932;5.318;2023-07-31T12:52:43;22.50;1.40
18392;DHT22;9322;50.932;5.318;2023-07-31T12:55:09;22.20;1.40
18392;DHT22;9322;50.932;5.318;2023-07-31T12:57:36;21.90;1.40
18392;DHT22;9322;50.932;5.318;2023-07-31T13:00:02;22.00;1.40
18392;DHT22;9322;50.932;5.318;2023-07-31T13:02:28;21.80;1.40
18392;DHT22;9322;50.932;5.318;2023-07-31T13:04:54;21.30;1.40
18392;DHT22;9322;50.932;5.318;2023-07-31T13:07:22;21.30;1.40
18392;DHT22;9322;50.932;5.318;2023-07-31T13:09:48;21.10;1.40
18392;DHT22;9322;50.932;5.318;2023-07-31T13:12:13;20.60;1.40
18392;DHT22;9322;50.932;5.318;2023-07-31T13:14:39;20.80;1.40
18392;DHT22;9322;50.932;5.318;2023-07-31T13:17:04;20.60;1.40
18392;DHT22;9322;50.932;5.318;2023-07-31T13:19:30;20.50;1.40
18392;DHT22;9322;50.932;5.318;2023-07-31T13:21:56;20.50;1.40
18392;DHT22;9322;50.932;5.318;2023-07-31T13:24:21;20.60;1.40
18392;DHT22;9322;50.932;5.318;2023-07-31T13:26:47;20.50;1.40
18392;DHT22;9322;50.932;5.318;2023-07-31T13:29:13;20.40;1.40
18392;DHT22;9322;50.932;5.318;2023-07-31T13:31:38;20.50;1.40
18392;DHT22;9322;50.932;5.318;2023-07-31T13:34:04;20.60;1.40
18392;DHT22;9322;50.932;5.318;2023-07-31T13:36:30;20.40;1.40
18392;DHT22;9322;50.932;5.318;2023-07-31T13:38:55;20.50;1.40
18392;DHT22;9322;50.932;5.318;2023-07-31T13:41:21;20.60;1.40
18392;DHT22;9322;50.932;5.318;2023-07-31T13:43:46;20.60;1.40
18392;DHT22;9322;50.932;5.318;2023-07-31T13:46:12;20.70;1.40
18392;DHT22;9322;50.932;5.318;2023-07-31T13:48:38;20.50;1.40
18392;DHT22;9322;50.932;5.318;2023-07-31T13:51:03;20.50;1.40
18392;DHT22;9322;50.932;5.318;2023-07-31T13:53:29;20.40;1.40
18392;DHT22;9322;50.932;5.318;2023-07-31T13:55:55;20.40;1.40
18392;DHT22;9322;50.932;5.318;2023-07-31T13:58:20;20.50;1.40
18392;DHT22;9322;50.932;5.318;2023-07-31T14:00:46;20.60;1.40
18392;DHT22;9322;50.932;5.318;2023-07-31T14:03:12;20.70;1.40
18392;DHT22;9322;50.932;5.318;2023-07-31T14:05:38;20.20;1.40
18392;DHT22;9322;50.932;5.318;2023-07-31T14:08:03;20.20;1.40
18392;DHT22;9322;50.932;5.318;2023-07-31T14:10:29;20.20;1.40
18392;DHT22;9322;50.932;5.318;2023-07-31T14:12:55;20.10;1.40
18392;DHT22;9322;50.932;5.318;2023-07-31T14:15:20;20.20;1.40
18392;DHT22;9322;50.932;5.318;2023-07-31T14:17:46;20.10;1.40
18392;DHT22;9322;50.932;5.318;2023-07-31T14:20:12;20.10;1.40
18392;DHT22;9322;50.932;5.318;2023-07-31T14:22:38;20.10;1.40
18392;DHT22;9322;50.932;5.318;2023-07-31T14:25:04;20.10;1.40
18392;DHT22;9322;50.932;5.318;2023-07-31T14:27:30;19.70;1.40
18392;DHT22;9322;50.932;5.318;2023-07-31T14:29:55;19.70;1.40
18392;DHT22;9322;50.932;5.318;2023-07-31T14:32:22;19.70;1.40
18392;DHT22;9322;50.932;5.318;2023-07-31T14:34:50;19.50;1.40
18392;DHT22;9322;50.932;5.318;2023-07-31T14:37:16;19.50;1.40
18392;DHT22;9322;50.932;5.318;2023-07-31T14:39:42;19.50;1.40
18392;DHT22;9322;50.932;5.318;2023-07-31T14:42:09;19.40;1.40
18392;DHT22;9322;50.932;5.318;2023-07-31T14:44:35;19.40;1.40
18392;DHT22;9322;50.932;5.318;2023-07-31T14:47:00;19.40;1.40
18392;DHT22;9322;50.932;5.318;2023-07-31T14:49:26;19.10;1.40
18392;DHT22;9322;50.932;5.318;2023-07-31T14:51:54;19.10;1.40
18392;DHT22;9322;50.932;5.318;2023-07-31T14:54:19;19.10;1.40
18392;DHT22;9322;50.932;5.318;2023-07-31T14:56:45;19.10;1.40
18392;DHT22;9322;50.932;5.318;2023-07-31T14:59:11;19.20;1.40
18392;DHT22;9322;50.932;5.318;2023-07-31T15:01:37;19.20;1.40
18392;DHT22;9322;50.932;5.318;2023-07-31T15:04:03;18.90;1.40
18392;DHT22;9322;50.932;5.318;2023-07-31T15:06:29;18.70;1.40
18392;DHT22;9322;50.932;5.318;2023-07-31T15:08:55;18.50;1.40
18392;DHT22;9322;50.932;5.318;2023-07-31T15:11:20;18.40;1.40
18392;DHT22;9322;50.932;5.318;2023-07-31T15:13:46;18.60;1.40
18392;DHT22;9322;50.932;5.318;2023-07-31T15:16:12;18.60;1.40
18392;DHT22;9322;50.932;5.318;2023-07-31T15:18:38;18.60;1.40
18392;DHT22;9322;50.932;5.318;2023-07-31T15:21:04;18.40;1.40
18392;DHT22;9322;50.932;5.318;2023-07-31T15:23:32;18.60;1.40
18392;DHT22;9322;50.932;5.318;2023-07-31T15:25:57;18.60;1.40
18392;DHT22;9322;50.932;5.318;2023-07-31T15:28:23;18.60;1.40
18392;DHT22;9322;50.932;5.318;2023-07-31T15:30:49;18.40;1.40
18392;DHT22;9322;50.932;5.318;2023-07-31T15:33:15;18.50;1.40
18392;DHT22;9322;50.932;5.318;2023-07-31T15:35:41;18.40;1.40
18392;DHT22;9322;50.932;5.318;2023-07-31T15:38:07;18.50;1.40
18392;DHT22;9322;50.932;5.318;2023-07-31T15:40:33;18.60;1.40
18392;DHT22;9322;50.932;5.318;2023-07-31T15:42:58;18.70;1.40
18392;DHT22;9322;50.932;5.318;2023-07-31T15:45:26;18.70;1.40
18392;DHT22;9322;50.932;5.318;2023-07-31T15:47:51;18.50;1.40
18392;DHT22;9322;50.932;5.318;2023-07-31T15:50:17;18.50;1.40
18392;DHT22;9322;50.932;5.318;2023-07-31T15:52:43;18.40;1.40
18392;DHT22;9322;50.932;5.318;2023-07-31T15:55:10;18.20;1.40
18392;DHT22;9322;50.932;5.318;2023-07-31T15:57:35;18.30;1.40
18392;DHT22;9322;50.932;5.318;2023-07-31T16:00:01;18.10;1.40
18392;DHT22;9322;50.932;5.318;2023-07-31T16:02:28;18.00;1.40
18392;DHT22;9322;50.932;5.318;2023-07-31T16:04:53;18.10;1.40
18392;DHT22;9322;50.932;5.318;2023-07-31T16:07:19;18.00;1.40
18392;DHT22;9322;50.932;5.318;2023-07-31T16:09:46;18.00;1.40
18392;DHT22;9322;50.932;5.318;2023-07-31T16:12:12;18.10;1.40